createdAt,value
2018-05-06T00:02:07.717Z,42.76
2018-05-06T00:04:34.344Z,42.71
2018-05-06T00:07:01.112Z,42.75
2018-05-06T00:09:27.703Z,42.74
2018-05-06T00:11:54.409Z,42.88
2018-05-06T00:14:21.035Z,42.80
2018-05-06T00:16:47.639Z,42.81
2018-05-06T00:19:14.312Z,42.86
2018-05-06T00:21:40.940Z,42.82
2018-05-06T00:24:07.626Z,42.87
2018-05-06T00:26:34.225Z,42.88
2018-05-06T00:29:00.901Z,43.10
2018-05-06T00:31:27.537Z,43.12
2018-05-06T00:33:54.221Z,42.96
2018-05-06T00:36:20.838Z,42.99
2018-05-06T00:38:47.474Z,43.11
2018-05-06T00:41:14.157Z,43.11
2018-05-06T00:43:40.819Z,43.08
2018-05-06T00:46:07.421Z,43.19
2018-05-06T00:48:34.046Z,43.15
2018-05-06T00:51:00.812Z,43.05
2018-05-06T00:53:27.515Z,43.02
2018-05-06T00:55:54.173Z,43.20
2018-05-06T00:58:20.770Z,43.18
2018-05-06T01:00:47.465Z,43.25
2018-05-06T01:03:14.059Z,43.24
2018-05-06T01:05:40.773Z,43.27
2018-05-06T01:08:07.399Z,43.25
2018-05-06T01:10:34.038Z,43.31
2018-05-06T01:13:00.710Z,43.32
2018-05-06T01:15:27.315Z,43.23
2018-05-06T01:17:53.987Z,43.17
2018-05-06T01:20:20.619Z,43.14
2018-05-06T01:22:47.264Z,43.11
2018-05-06T01:25:13.941Z,43.24
2018-05-06T01:27:40.564Z,43.33
2018-05-06T01:30:07.203Z,43.25
2018-05-06T01:32:33.830Z,43.19
2018-05-06T01:35:00.467Z,43.24
2018-05-06T01:37:27.065Z,43.15
2018-05-06T01:39:53.711Z,43.20
2018-05-06T01:42:20.402Z,43.13
2018-05-06T01:44:47.147Z,43.14
2018-05-06T01:47:13.815Z,43.14
2018-05-06T01:49:40.426Z,43.27
2018-05-06T01:52:07.093Z,43.23
2018-05-06T01:54:33.708Z,43.17
2018-05-06T01:57:00.379Z,43.20
2018-05-06T01:59:26.974Z,43.20
2018-05-06T02:01:53.619Z,43.22
2018-05-06T02:04:20.249Z,43.12
2018-05-06T02:06:46.924Z,43.09
2018-05-06T02:09:13.558Z,43.13
2018-05-06T02:11:40.246Z,43.14
2018-05-06T02:14:06.878Z,43.19
2018-05-06T02:16:33.551Z,43.20
2018-05-06T02:19:00.190Z,43.26
2018-05-06T02:21:26.891Z,43.01
2018-05-06T02:23:53.491Z,43.18
2018-05-06T02:26:20.221Z,43.19
2018-05-06T02:28:46.855Z,43.24
2018-05-06T02:31:13.482Z,43.09
2018-05-06T02:33:40.163Z,43.02
2018-05-06T02:36:06.787Z,43.14
2018-05-06T02:38:33.428Z,43.26
2018-05-06T02:41:00.054Z,43.16
2018-05-06T02:43:26.698Z,43.20
2018-05-06T02:45:53.341Z,43.15
2018-05-06T02:48:19.990Z,43.18
2018-05-06T02:50:46.621Z,43.13
2018-05-06T02:53:13.291Z,43.03
2018-05-06T02:55:39.905Z,43.12
2018-05-06T02:58:06.587Z,43.04
2018-05-06T03:00:33.224Z,43.09
2018-05-06T03:02:59.862Z,43.01
2018-05-06T03:05:26.532Z,42.98
2018-05-06T03:07:53.172Z,42.95
2018-05-06T03:10:19.845Z,43.00
2018-05-06T03:12:46.507Z,43.00
2018-05-06T03:15:13.150Z,43.00
2018-05-06T03:17:39.812Z,43.00
2018-05-06T03:20:06.448Z,43.17
2018-05-06T03:22:33.089Z,43.07
2018-05-06T03:24:59.729Z,42.99
2018-05-06T03:27:26.410Z,42.96
2018-05-06T03:29:53.082Z,43.06
2018-05-06T03:32:19.747Z,43.06
2018-05-06T03:34:46.461Z,43.00
2018-05-06T03:37:13.131Z,43.10
2018-05-06T03:39:39.764Z,43.11
2018-05-06T03:42:06.435Z,43.08
2018-05-06T03:44:33.112Z,43.17
2018-05-06T03:46:59.709Z,43.30
2018-05-06T03:49:26.373Z,43.25
2018-05-06T03:51:52.985Z,43.41
2018-05-06T03:54:19.649Z,43.32
2018-05-06T03:56:46.285Z,43.26
2018-05-06T03:59:12.888Z,43.04
2018-05-06T04:01:40.540Z,43.07
2018-05-06T04:04:07.167Z,43.05
2018-05-06T04:06:33.847Z,42.56
2018-05-06T04:09:00.506Z,42.42
2018-05-06T04:11:27.149Z,42.50
2018-05-06T04:13:53.778Z,42.58
2018-05-06T04:16:20.488Z,42.51
2018-05-06T04:18:47.121Z,42.56
2018-05-06T04:21:13.865Z,42.47
2018-05-06T04:23:43.292Z,42.26
2018-05-06T04:26:10.021Z,42.24
2018-05-06T04:28:36.647Z,42.03
2018-05-06T04:31:03.332Z,42.18
2018-05-06T04:33:29.986Z,41.94
2018-05-06T04:35:56.585Z,41.92
2018-05-06T04:38:23.224Z,42.00
2018-05-06T04:40:49.898Z,42.03
2018-05-06T04:43:16.630Z,42.17
2018-05-06T04:45:43.341Z,42.06
2018-05-06T04:48:10.016Z,42.07
2018-05-06T04:50:36.697Z,41.95
2018-05-06T04:53:03.336Z,42.12
2018-05-06T04:55:29.929Z,42.12
2018-05-06T04:57:56.574Z,42.25
2018-05-06T05:00:23.251Z,42.25
2018-05-06T05:02:49.918Z,42.41
2018-05-06T05:05:16.557Z,42.35
2018-05-06T05:07:43.226Z,42.31
2018-05-06T05:10:09.893Z,42.33
2018-05-06T05:12:36.523Z,42.35
2018-05-06T05:15:03.161Z,42.35
2018-05-06T05:17:29.830Z,42.31
2018-05-06T05:19:56.504Z,42.19
2018-05-06T05:22:23.105Z,42.31
2018-05-06T05:24:49.799Z,42.17
2018-05-06T05:27:16.464Z,42.24
2018-05-06T05:29:43.107Z,42.29
2018-05-06T05:32:09.772Z,42.19
2018-05-06T05:34:36.416Z,42.11
2018-05-06T05:37:03.093Z,41.51
2018-05-06T05:39:29.688Z,41.61
2018-05-06T05:41:56.457Z,41.40
2018-05-06T05:44:23.051Z,41.13
2018-05-06T05:46:49.656Z,41.17
2018-05-06T05:49:16.292Z,40.31
2018-05-06T05:51:42.982Z,40.38
2018-05-06T05:54:09.654Z,40.38
2018-05-06T05:56:36.279Z,40.30
2018-05-06T05:59:02.929Z,39.75
2018-05-06T06:01:29.564Z,39.86
2018-05-06T06:03:56.197Z,39.19
2018-05-06T06:06:22.920Z,39.30
2018-05-06T06:08:49.605Z,38.94
2018-05-06T06:11:16.198Z,39.13
2018-05-06T06:13:42.903Z,38.83
2018-05-06T06:16:09.509Z,39.13
2018-05-06T06:18:36.178Z,39.08
2018-05-06T06:21:02.825Z,38.70
2018-05-06T06:23:29.457Z,38.41
2018-05-06T06:25:56.089Z,38.20
2018-05-06T06:28:22.773Z,38.30
2018-05-06T06:30:49.443Z,37.72
2018-05-06T06:33:16.050Z,37.80
2018-05-06T06:35:42.725Z,38.02
2018-05-06T06:38:09.390Z,37.87
2018-05-06T06:40:36.083Z,38.74
2018-05-06T06:43:02.712Z,37.95
2018-05-06T06:45:29.376Z,38.04
2018-05-06T06:47:56.046Z,38.12
2018-05-06T06:50:22.681Z,37.84
2018-05-06T06:52:49.329Z,37.93
2018-05-06T06:55:16.050Z,37.73
2018-05-06T06:57:42.655Z,37.94
2018-05-06T07:00:09.323Z,37.97
2018-05-06T07:02:35.964Z,37.73
2018-05-06T07:05:02.635Z,37.86
2018-05-06T07:07:29.266Z,38.36
2018-05-06T07:09:55.901Z,38.58
2018-05-06T07:12:22.505Z,39.03
2018-05-06T07:14:49.177Z,40.04
2018-05-06T07:17:15.813Z,39.54
2018-05-06T07:19:42.482Z,39.04
2018-05-06T07:22:09.115Z,39.43
2018-05-06T07:24:35.756Z,39.01
2018-05-06T07:27:02.389Z,38.45
2018-05-06T07:29:29.052Z,38.66
2018-05-06T07:31:55.710Z,38.34
2018-05-06T07:34:22.345Z,38.54
2018-05-06T07:36:49.007Z,38.21
2018-05-06T07:39:15.648Z,38.28
2018-05-06T07:41:42.317Z,37.97
2018-05-06T07:44:08.953Z,38.12
2018-05-06T07:46:35.586Z,37.93
2018-05-06T07:49:02.233Z,37.78
2018-05-06T07:51:28.887Z,37.60
2018-05-06T07:53:55.545Z,37.69
2018-05-06T07:56:22.176Z,37.50
2018-05-06T07:58:48.930Z,37.62
2018-05-06T08:01:15.556Z,37.21
2018-05-06T08:03:42.192Z,37.63
2018-05-06T08:06:08.877Z,37.37
2018-05-06T08:08:35.475Z,37.39
2018-05-06T08:11:02.153Z,37.12
2018-05-06T08:13:28.779Z,37.46
2018-05-06T08:15:55.450Z,37.24
2018-05-06T08:18:22.065Z,37.33
2018-05-06T08:20:48.745Z,36.98
2018-05-06T08:23:15.382Z,37.23
2018-05-06T08:25:42.099Z,36.96
2018-05-06T08:28:08.693Z,37.15
2018-05-06T08:30:35.379Z,37.24
2018-05-06T08:33:02.014Z,37.24
2018-05-06T08:35:28.691Z,37.03
2018-05-06T08:37:55.341Z,37.03
2018-05-06T08:40:21.970Z,37.04
2018-05-06T08:42:48.661Z,37.03
2018-05-06T08:45:15.291Z,36.90
2018-05-06T08:47:41.886Z,36.86
2018-05-06T08:50:08.538Z,37.14
2018-05-06T08:52:35.277Z,36.77
2018-05-06T08:55:01.885Z,36.94
2018-05-06T08:57:28.552Z,36.81
2018-05-06T08:59:55.193Z,36.81
2018-05-06T09:02:21.841Z,36.66
2018-05-06T09:04:48.481Z,36.82
2018-05-06T09:07:15.174Z,36.69
2018-05-06T09:09:41.845Z,36.89
2018-05-06T09:12:08.493Z,36.59
2018-05-06T09:14:35.134Z,36.87
2018-05-06T09:17:01.843Z,36.67
2018-05-06T09:19:28.444Z,36.92
2018-05-06T09:21:55.121Z,36.76
2018-05-06T09:24:21.731Z,36.76
2018-05-06T09:26:49.795Z,36.55
2018-05-06T09:29:15.069Z,36.84
2018-05-06T09:31:41.720Z,36.64
2018-05-06T09:34:11.145Z,36.72
2018-05-06T09:36:37.778Z,36.66
2018-05-06T09:39:04.391Z,36.65
2018-05-06T09:41:31.026Z,36.84
2018-05-06T09:43:57.706Z,36.75
2018-05-06T09:46:24.337Z,36.63
2018-05-06T09:48:50.975Z,36.51
2018-05-06T09:51:17.616Z,36.29
2018-05-06T09:53:44.298Z,36.46
2018-05-06T09:56:10.891Z,36.33
2018-05-06T09:58:37.572Z,36.42
2018-05-06T10:01:04.167Z,36.41
2018-05-06T10:03:30.809Z,36.42
2018-05-06T10:05:57.439Z,36.21
2018-05-06T10:08:24.088Z,36.46
2018-05-06T10:10:50.719Z,36.06
2018-05-06T10:13:17.362Z,36.30
2018-05-06T10:15:44.020Z,36.09
2018-05-06T10:18:10.678Z,36.16
2018-05-06T10:20:37.283Z,36.08
2018-05-06T10:23:03.921Z,36.01
2018-05-06T10:25:30.560Z,35.96
2018-05-06T10:27:57.202Z,35.90
2018-05-06T10:30:23.922Z,35.71
2018-05-06T10:32:50.525Z,35.96
2018-05-06T10:35:17.197Z,35.68
2018-05-06T10:37:43.830Z,35.77
2018-05-06T10:40:10.458Z,35.57
2018-05-06T10:42:37.096Z,35.58
2018-05-06T10:45:03.699Z,35.48
2018-05-06T10:47:30.369Z,35.57
2018-05-06T10:49:56.970Z,35.31
2018-05-06T10:52:23.609Z,35.30
2018-05-06T10:54:50.280Z,35.17
2018-05-06T10:57:16.921Z,35.33
2018-05-06T10:59:43.556Z,34.94
2018-05-06T11:02:10.171Z,35.16
2018-05-06T11:04:36.841Z,34.91
2018-05-06T11:07:03.502Z,35.02
2018-05-06T11:09:30.103Z,34.87
2018-05-06T11:11:56.762Z,35.12
2018-05-06T11:14:23.537Z,34.70
2018-05-06T11:16:50.173Z,34.82
2018-05-06T11:19:16.808Z,34.66
2018-05-06T11:21:43.509Z,34.72
2018-05-06T11:24:10.146Z,34.46
2018-05-06T11:26:36.782Z,34.46
2018-05-06T11:29:03.464Z,34.48
2018-05-06T11:31:30.065Z,34.14
2018-05-06T11:33:56.721Z,34.45
2018-05-06T11:36:23.396Z,34.25
2018-05-06T11:38:50.002Z,34.10
2018-05-06T11:41:16.640Z,34.31
2018-05-06T11:43:43.282Z,34.09
2018-05-06T11:46:09.910Z,34.19
2018-05-06T11:48:36.544Z,34.19
2018-05-06T11:51:03.187Z,34.08
2018-05-06T11:53:29.826Z,34.29
2018-05-06T11:55:56.488Z,34.19
2018-05-06T11:58:23.140Z,34.32
2018-05-06T12:00:49.734Z,34.49
2018-05-06T12:03:16.407Z,34.39
2018-05-06T12:05:43.010Z,34.75
2018-05-06T12:08:09.682Z,34.72
2018-05-06T12:10:36.313Z,35.13
2018-05-06T12:13:02.956Z,35.04
2018-05-06T12:15:29.591Z,35.19
2018-05-06T12:17:56.221Z,35.15
2018-05-06T12:20:22.821Z,35.47
2018-05-06T12:22:49.461Z,35.22
2018-05-06T12:25:16.141Z,35.55
2018-05-06T12:27:42.773Z,35.41
2018-05-06T12:30:09.374Z,35.45
2018-05-06T12:32:36.016Z,35.56
2018-05-06T12:35:02.655Z,35.59
2018-05-06T12:37:29.314Z,35.80
2018-05-06T12:39:55.961Z,35.64
2018-05-06T12:42:22.558Z,35.88
2018-05-06T12:44:49.185Z,35.71
2018-05-06T12:47:15.873Z,36.00
2018-05-06T12:49:42.478Z,35.88
2018-05-06T12:52:09.209Z,35.68
2018-05-06T12:54:35.837Z,35.79
2018-05-06T12:57:02.508Z,35.73
2018-05-06T12:59:29.110Z,35.95
2018-05-06T13:01:55.749Z,35.62
2018-05-06T13:04:22.393Z,35.65
2018-05-06T13:06:49.033Z,35.62
2018-05-06T13:09:15.669Z,35.32
2018-05-06T13:11:42.375Z,35.39
2018-05-06T13:14:09.039Z,35.03
2018-05-06T13:16:35.645Z,35.02
2018-05-06T13:19:02.328Z,34.75
2018-05-06T13:21:28.951Z,34.65
2018-05-06T13:23:55.588Z,34.67
2018-05-06T13:26:22.257Z,34.36
2018-05-06T13:28:51.757Z,34.56
2018-05-06T13:31:18.405Z,34.28
2018-05-06T13:33:45.003Z,34.47
2018-05-06T13:36:11.720Z,34.29
2018-05-06T13:38:38.411Z,34.07
2018-05-06T13:41:05.051Z,34.29
2018-05-06T13:43:31.722Z,33.96
2018-05-06T13:45:58.353Z,34.17
2018-05-06T13:48:24.978Z,33.97
2018-05-06T13:50:51.696Z,34.08
2018-05-06T13:53:18.337Z,33.84
2018-05-06T13:55:44.941Z,33.83
2018-05-06T13:58:11.604Z,34.04
2018-05-06T14:00:38.215Z,33.72
2018-05-06T14:03:04.908Z,33.95
2018-05-06T14:05:31.537Z,33.76
2018-05-06T14:07:58.165Z,33.89
2018-05-06T14:10:24.850Z,33.71
2018-05-06T14:12:52.765Z,33.55
2018-05-06T14:15:18.122Z,33.86
2018-05-06T14:17:44.763Z,33.58
2018-05-06T14:20:11.396Z,33.70
2018-05-06T14:22:38.066Z,33.53
2018-05-06T14:25:04.695Z,33.59
2018-05-06T14:27:31.332Z,33.74
2018-05-06T14:29:57.964Z,33.52
2018-05-06T14:32:24.607Z,33.67
2018-05-06T14:34:51.282Z,33.59
2018-05-06T14:37:17.884Z,33.68
2018-05-06T14:39:44.518Z,33.56
2018-05-06T14:42:11.188Z,33.48
2018-05-06T14:44:37.825Z,33.56
2018-05-06T14:47:04.459Z,33.40
2018-05-06T14:49:31.068Z,33.50
2018-05-06T14:51:57.731Z,33.38
2018-05-06T14:54:24.373Z,33.49
2018-05-06T14:56:51.008Z,33.40
2018-05-06T14:59:17.645Z,33.32
2018-05-06T15:01:44.245Z,33.53
2018-05-06T15:04:10.884Z,33.30
2018-05-06T15:06:37.524Z,33.54
2018-05-06T15:09:04.158Z,33.62
2018-05-06T15:11:30.837Z,34.50
2018-05-06T15:13:57.439Z,34.77
2018-05-06T15:16:24.113Z,35.13
2018-05-06T15:18:50.711Z,35.07
2018-05-06T15:21:17.385Z,34.76
2018-05-06T15:23:44.026Z,34.76
2018-05-06T15:26:10.730Z,34.65
2018-05-06T15:28:37.400Z,34.47
2018-05-06T15:31:04.005Z,34.34
2018-05-06T15:33:30.674Z,34.51
2018-05-06T15:35:57.344Z,34.16
2018-05-06T15:38:23.980Z,34.45
2018-05-06T15:40:50.652Z,34.30
2018-05-06T15:43:17.430Z,34.33
2018-05-06T15:45:44.027Z,34.31
2018-05-06T15:48:10.706Z,34.00
2018-05-06T15:50:37.390Z,34.19
2018-05-06T15:53:03.981Z,34.14
2018-05-06T15:55:30.653Z,34.17
2018-05-06T15:58:00.022Z,34.49
2018-05-06T16:00:26.665Z,34.33
2018-05-06T16:02:53.297Z,34.67
2018-05-06T16:05:19.902Z,34.53
2018-05-06T16:07:46.535Z,34.40
2018-05-06T16:10:13.247Z,34.54
2018-05-06T16:12:39.880Z,34.68
2018-05-06T16:15:06.521Z,34.68
2018-05-06T16:17:33.147Z,34.70
2018-05-06T16:19:59.799Z,35.08
2018-05-06T16:22:26.508Z,34.92
2018-05-06T16:24:53.063Z,34.97
2018-05-06T16:27:19.709Z,35.36
2018-05-06T16:29:49.136Z,35.31
2018-05-06T16:32:15.808Z,35.35
2018-05-06T16:34:42.481Z,35.84
2018-05-06T16:37:09.161Z,35.73
2018-05-06T16:39:35.764Z,36.03
2018-05-06T16:42:02.405Z,36.11
2018-05-06T16:44:29.069Z,36.09
2018-05-06T16:46:55.711Z,36.20
2018-05-06T16:49:22.381Z,36.69
2018-05-06T16:51:48.988Z,36.51
2018-05-06T16:54:15.655Z,36.65
2018-05-06T16:56:42.299Z,36.95
2018-05-06T16:59:08.932Z,36.78
2018-05-06T17:01:35.561Z,36.82
2018-05-06T17:04:02.279Z,37.22
2018-05-06T17:06:28.902Z,37.01
2018-05-06T17:08:55.615Z,37.13
2018-05-06T17:11:22.210Z,37.62
2018-05-06T17:13:48.898Z,37.52
2018-05-06T17:16:15.531Z,37.45
2018-05-06T17:18:42.167Z,37.59
2018-05-06T17:21:08.840Z,39.55
2018-05-06T17:23:35.521Z,39.81
2018-05-06T17:26:02.205Z,39.47
2018-05-06T17:28:28.808Z,39.81
2018-05-06T17:30:55.440Z,40.30
2018-05-06T17:33:22.146Z,40.53
2018-05-06T17:35:48.753Z,40.08
2018-05-06T17:38:15.435Z,40.18
2018-05-06T17:40:42.065Z,40.53
2018-05-06T17:43:08.746Z,40.29
2018-05-06T17:45:35.408Z,40.35
2018-05-06T17:48:02.055Z,42.38
2018-05-06T17:50:28.692Z,42.78
2018-05-06T17:52:55.367Z,42.84
2018-05-06T17:55:21.965Z,42.97
2018-05-06T17:57:48.650Z,43.52
2018-05-06T18:00:15.285Z,43.53
2018-05-06T18:02:41.950Z,43.85
2018-05-06T18:05:08.596Z,43.98
2018-05-06T18:07:35.273Z,43.99
2018-05-06T18:10:04.794Z,43.99
2018-05-06T18:12:31.468Z,44.01
2018-05-06T18:14:58.063Z,44.29
2018-05-06T18:17:24.690Z,44.17
2018-05-06T18:19:51.372Z,44.38
2018-05-06T18:22:17.966Z,44.56
2018-05-06T18:24:44.733Z,44.51
2018-05-06T18:27:11.305Z,44.54
2018-05-06T18:29:37.935Z,44.64
2018-05-06T18:32:04.536Z,44.85
2018-05-06T18:34:31.174Z,44.75
2018-05-06T18:36:57.839Z,44.90
2018-05-06T18:39:24.485Z,44.87
2018-05-06T18:41:51.153Z,45.45
2018-05-06T18:44:17.751Z,45.00
2018-05-06T18:46:44.451Z,45.25
2018-05-06T18:49:11.060Z,45.26
2018-05-06T18:51:37.690Z,45.35
2018-05-06T18:54:04.335Z,45.33
2018-05-06T18:56:30.973Z,45.29
2018-05-06T18:58:57.607Z,45.34
2018-05-06T19:01:24.293Z,45.34
2018-05-06T19:03:50.976Z,45.47
2018-05-06T19:06:17.615Z,45.36
2018-05-06T19:08:44.352Z,45.80
2018-05-06T19:11:10.990Z,45.47
2018-05-06T19:13:37.660Z,45.45
2018-05-06T19:16:04.287Z,45.51
2018-05-06T19:18:30.974Z,45.53
2018-05-06T19:20:57.576Z,45.53
2018-05-06T19:23:24.221Z,45.47
2018-05-06T19:25:50.890Z,45.63
2018-05-06T19:28:17.521Z,45.62
2018-05-06T19:30:44.182Z,45.51
2018-05-06T19:33:10.790Z,45.54
2018-05-06T19:35:37.432Z,45.67
2018-05-06T19:38:04.115Z,45.68
2018-05-06T19:40:30.753Z,45.65
2018-05-06T19:42:57.422Z,45.76
2018-05-06T19:45:24.085Z,45.60
2018-05-06T19:47:50.687Z,45.68
2018-05-06T19:50:17.352Z,45.69
2018-05-06T19:52:43.960Z,45.69
2018-05-06T19:55:10.581Z,45.63
2018-05-06T19:57:37.226Z,45.69
2018-05-06T20:00:03.899Z,45.58
2018-05-06T20:02:30.608Z,45.84
2018-05-06T20:04:57.202Z,45.74
2018-05-06T20:07:23.920Z,45.76
2018-05-06T20:09:50.478Z,45.72
2018-05-06T20:12:17.151Z,45.71
2018-05-06T20:14:43.753Z,45.79
2018-05-06T20:17:10.522Z,45.76
2018-05-06T20:19:37.280Z,45.68
2018-05-06T20:22:03.941Z,45.70
2018-05-06T20:24:30.533Z,45.74
2018-05-06T20:26:57.293Z,45.92
2018-05-06T20:29:23.892Z,45.82
2018-05-06T20:31:50.561Z,45.86
2018-05-06T20:34:17.195Z,45.83
2018-05-06T20:36:43.837Z,45.75
2018-05-06T20:39:10.517Z,46.04
2018-05-06T20:41:37.192Z,45.93
2018-05-06T20:44:03.823Z,45.92
2018-05-06T20:46:30.460Z,45.95
2018-05-06T20:48:57.064Z,45.96
2018-05-06T20:51:23.722Z,46.04
2018-05-06T20:53:50.401Z,46.06
2018-05-06T20:56:17.042Z,46.08
2018-05-06T20:58:43.685Z,46.10
2018-05-06T21:01:10.358Z,46.11
2018-05-06T21:03:37.074Z,46.16
2018-05-06T21:06:03.719Z,46.14
2018-05-06T21:08:30.392Z,46.16
2018-05-06T21:10:57.023Z,46.12
2018-05-06T21:13:23.705Z,46.10
2018-05-06T21:15:50.315Z,46.25
2018-05-06T21:18:16.951Z,46.03
2018-05-06T21:20:43.642Z,46.24
2018-05-06T21:23:10.284Z,46.24
2018-05-06T21:25:36.968Z,46.21
2018-05-06T21:28:03.632Z,46.20
2018-05-06T21:30:30.241Z,46.25
2018-05-06T21:32:57.690Z,46.26
2018-05-06T21:35:26.273Z,46.17
2018-05-06T21:37:52.949Z,46.21
2018-05-06T21:40:19.635Z,46.38
2018-05-06T21:42:46.247Z,46.28
2018-05-06T21:45:12.876Z,46.46
2018-05-06T21:47:39.563Z,46.30
2018-05-06T21:50:06.174Z,46.25
2018-05-06T21:52:32.846Z,46.22
2018-05-06T21:54:59.496Z,46.32
2018-05-06T21:59:52.849Z,46.33
2018-05-06T22:02:19.497Z,46.30
2018-05-06T22:04:46.229Z,46.43
2018-05-06T22:07:12.866Z,46.37
2018-05-06T22:09:39.566Z,46.43
2018-05-06T22:12:06.159Z,46.39
2018-05-06T22:14:32.843Z,46.31
2018-05-06T22:16:59.465Z,46.45
2018-05-06T22:19:26.145Z,46.46
2018-05-06T22:21:52.858Z,46.54
2018-05-06T22:24:19.499Z,46.56
2018-05-06T22:26:46.134Z,46.38
2018-05-06T22:29:14.798Z,46.50
2018-05-06T22:31:41.437Z,46.39
2018-05-06T22:34:08.180Z,46.61
2018-05-06T22:36:34.744Z,46.56
2018-05-06T22:39:01.414Z,46.59
2018-05-06T22:41:28.063Z,46.57
2018-05-06T22:43:54.734Z,46.69
2018-05-06T22:46:21.348Z,46.62
2018-05-06T22:48:48.023Z,46.64
2018-05-06T22:51:14.634Z,46.70
2018-05-06T22:53:41.272Z,46.62
2018-05-06T22:56:08.107Z,46.75
2018-05-06T22:58:34.872Z,46.76
2018-05-06T23:01:01.478Z,46.76
2018-05-06T23:03:28.159Z,46.80
2018-05-06T23:05:54.790Z,46.74
2018-05-06T23:08:21.494Z,46.66
2018-05-06T23:10:48.126Z,46.61
2018-05-06T23:13:14.846Z,46.64
2018-05-06T23:15:44.292Z,46.70
2018-05-06T23:18:10.933Z,46.56
2018-05-06T23:20:37.598Z,46.51
2018-05-06T23:23:04.248Z,46.49
2018-05-06T23:25:30.905Z,46.60
2018-05-06T23:27:57.581Z,46.60
2018-05-06T23:30:24.251Z,46.53
2018-05-06T23:32:50.912Z,46.31
2018-05-06T23:35:17.582Z,46.44
2018-05-06T23:37:45.582Z,46.33
2018-05-06T23:40:10.920Z,46.49
2018-05-06T23:42:37.558Z,46.32
2018-05-06T23:45:04.233Z,46.23
2018-05-06T23:47:30.877Z,46.26
2018-05-06T23:49:57.525Z,46.26
2018-05-06T23:52:24.197Z,46.30
2018-05-06T23:54:50.850Z,46.31
2018-05-06T23:57:17.492Z,46.27
2018-05-06T23:59:44.131Z,46.24
